Time;durP1;ratioP1;P1;durP2;ratioP2;P2;SDS_P1;SDS_P2;PMS_P1;PMS_P2;Temp;Humidity;BMP_temperature;BMP_pressure;BME280_temperature;BME280_humidity;BME280_pressure;Samples;Min_cycle;Max_cycle;Signal;HPM_P1;HPM_P2
2022/04/11 00:02:16;;;;;;;3.60;2.10;;;17.80;57.10;;;;;;4877025;28;92362;-66
2022/04/11 00:04:43;;;;;;;3.05;2.05;;;17.80;57.10;;;;;;4876211;28;93057;-67
2022/04/11 00:07:09;;;;;;;3.50;2.05;;;17.70;57.10;;;;;;4875240;28;93114;-66
2022/04/11 00:09:35;;;;;;;3.05;2.08;;;17.70;57.00;;;;;;4874167;28;95717;-66
2022/04/11 00:12:00;;;;;;;4.05;2.13;;;17.70;57.10;;;;;;4875382;28;93115;-66
2022/04/11 00:14:26;;;;;;;3.75;2.03;;;17.70;57.10;;;;;;4875985;28;94355;-66
2022/04/11 00:16:52;;;;;;;3.53;2.03;;;17.70;57.00;;;;;;4875774;28;92665;-66
2022/04/11 00:19:17;;;;;;;3.20;1.88;;;17.70;56.90;;;;;;4875972;28;93015;-66
2022/04/11 00:21:43;;;;;;;3.92;2.05;;;17.70;56.90;;;;;;4875483;28;92830;-66
2022/04/11 00:24:09;;;;;;;3.58;2.17;;;17.70;56.90;;;;;;4875328;28;93115;-66
2022/04/11 00:26:34;;;;;;;3.22;2.10;;;17.70;56.90;;;;;;4875092;28;94179;-66
2022/04/11 00:29:00;;;;;;;3.50;2.00;;;17.70;56.90;;;;;;4875234;28;92907;-66
2022/04/11 00:31:26;;;;;;;3.45;2.13;;;17.70;56.80;;;;;;4876520;28;93007;-66
2022/04/11 00:33:52;;;;;;;2.28;1.70;;;17.70;56.80;;;;;;4874420;28;96995;-66
2022/04/11 00:36:18;;;;;;;3.75;1.98;;;17.60;56.70;;;;;;4875468;28;96428;-68
2022/04/11 00:38:44;;;;;;;3.75;2.00;;;17.70;56.80;;;;;;4875459;28;95628;-66
2022/04/11 00:41:10;;;;;;;3.40;1.90;;;17.60;56.70;;;;;;4875342;28;93789;-66
2022/04/11 00:43:37;;;;;;;2.55;1.80;;;17.60;56.70;;;;;;4876076;28;93879;-66
2022/04/11 00:46:05;;;;;;;2.67;1.80;;;17.60;56.60;;;;;;4875310;28;94254;-66
2022/04/11 00:48:31;;;;;;;3.35;1.77;;;17.60;56.60;;;;;;4876201;28;93079;-66
2022/04/11 00:51:01;;;;;;;4.28;2.30;;;17.60;56.60;;;;;;4875804;28;93883;-65
2022/04/11 00:53:28;;;;;;;4.43;1.90;;;17.60;56.60;;;;;;4875759;28;94082;-66
2022/04/11 00:55:56;;;;;;;2.80;2.05;;;17.60;56.60;;;;;;4876487;28;92797;-65
2022/04/11 00:58:22;;;;;;;2.83;1.80;;;17.50;56.50;;;;;;4873942;28;95263;-66
2022/04/11 01:00:48;;;;;;;2.85;1.70;;;17.60;56.60;;;;;;4875200;28;92754;-65
2022/04/11 01:03:14;;;;;;;2.90;2.00;;;17.50;56.50;;;;;;4874891;28;94791;-66
2022/04/11 01:05:40;;;;;;;3.65;1.92;;;17.60;56.50;;;;;;4873204;28;94443;-65
2022/04/11 01:08:08;;;;;;;3.75;1.90;;;17.50;56.50;;;;;;4874832;28;92778;-66
2022/04/11 01:10:34;;;;;;;3.05;1.80;;;17.50;56.40;;;;;;4875967;28;92437;-65
2022/04/11 01:13:01;;;;;;;3.50;1.90;;;17.50;56.40;;;;;;4875861;28;93144;-65
2022/04/11 01:15:27;;;;;;;2.50;1.70;;;17.50;56.50;;;;;;4875731;28;92859;-66
2022/04/11 01:17:52;;;;;;;3.13;1.90;;;17.50;56.40;;;;;;4874695;28;92602;-66
2022/04/11 01:20:19;;;;;;;2.42;1.70;;;17.50;56.30;;;;;;4874372;28;93756;-66
2022/04/11 01:22:45;;;;;;;2.28;1.80;;;17.50;56.40;;;;;;4874494;28;96563;-66
2022/04/11 01:25:12;;;;;;;2.10;1.80;;;17.50;56.30;;;;;;4876503;28;95188;-66
2022/04/11 01:27:39;;;;;;;3.35;1.88;;;17.50;56.30;;;;;;4874828;28;92582;-66
2022/04/11 01:30:07;;;;;;;2.35;1.55;;;17.50;56.30;;;;;;4874455;28;92891;-66
2022/04/11 01:32:33;;;;;;;2.92;1.70;;;17.50;56.30;;;;;;4874116;28;94739;-66
2022/04/11 01:34:59;;;;;;;3.00;1.67;;;17.50;56.30;;;;;;4874500;28;93952;-66
2022/04/11 01:37:26;;;;;;;3.13;1.55;;;17.50;56.30;;;;;;4874534;28;92568;-66
2022/04/11 01:39:51;;;;;;;3.10;1.80;;;17.50;56.30;;;;;;4875597;28;92363;-66
2022/04/11 01:42:18;;;;;;;2.17;1.50;;;17.40;56.20;;;;;;4874575;28;97873;-66
2022/04/11 01:44:43;;;;;;;2.88;1.75;;;17.40;56.20;;;;;;4874514;28;95393;-67
2022/04/11 01:47:09;;;;;;;2.95;1.90;;;17.40;56.20;;;;;;4873833;28;95717;-66
2022/04/11 01:49:34;;;;;;;2.92;1.95;;;17.40;56.20;;;;;;4874300;28;92945;-68
2022/04/11 01:52:00;;;;;;;2.75;1.50;;;17.40;56.20;;;;;;4873216;28;106565;-66
2022/04/11 01:54:27;;;;;;;2.55;1.70;;;17.40;56.10;;;;;;4875251;28;95358;-66
2022/04/11 01:56:54;;;;;;;2.70;1.70;;;17.40;56.10;;;;;;4875085;28;92631;-67
2022/04/11 01:59:20;;;;;;;2.78;1.70;;;17.40;56.10;;;;;;4873759;28;92546;-66
2022/04/11 02:01:45;;;;;;;4.30;1.70;;;17.40;56.10;;;;;;4873764;28;98720;-66
2022/04/11 02:04:11;;;;;;;2.65;1.80;;;17.40;56.00;;;;;;4874395;28;93889;-66
2022/04/11 02:06:36;;;;;;;2.67;1.55;;;17.40;56.10;;;;;;4874040;28;93164;-68
2022/04/11 02:09:03;;;;;;;2.63;1.50;;;17.40;56.00;;;;;;4874803;28;92916;-66
2022/04/11 02:11:28;;;;;;;3.03;1.58;;;17.40;56.00;;;;;;4872661;28;96905;-68
2022/04/11 02:13:54;;;;;;;3.17;1.60;;;17.40;56.00;;;;;;4874679;28;95561;-66
2022/04/11 02:16:20;;;;;;;1.80;1.38;;;17.40;55.90;;;;;;4873838;28;92532;-67
2022/04/11 02:18:46;;;;;;;3.63;1.63;;;17.40;55.90;;;;;;4875076;28;92566;-66
2022/04/11 02:21:11;;;;;;;2.88;1.60;;;17.30;55.90;;;;;;4873738;28;105726;-67
2022/04/11 02:23:37;;;;;;;2.50;1.60;;;17.30;55.80;;;;;;4873887;28;92791;-66
2022/04/11 02:26:03;;;;;;;3.15;1.73;;;17.30;55.80;;;;;;4872711;28;92774;-66
2022/04/11 02:28:28;;;;;;;2.88;1.67;;;17.30;55.80;;;;;;4874564;28;92443;-66
2022/04/11 02:30:54;;;;;;;2.50;1.83;;;17.30;55.80;;;;;;4873580;28;93138;-66
2022/04/11 02:33:19;;;;;;;3.03;1.60;;;17.30;55.80;;;;;;4872922;28;92677;-66
2022/04/11 02:35:45;;;;;;;2.70;1.67;;;17.30;56.80;;;;;;4871780;28;95704;-66
2022/04/11 02:38:11;;;;;;;2.20;1.38;;;17.30;55.70;;;;;;4873814;28;92607;-68
2022/04/11 02:40:37;;;;;;;2.28;1.58;;;17.30;55.70;;;;;;4873584;28;93127;-67
2022/04/11 02:43:02;;;;;;;2.83;1.77;;;17.30;55.70;;;;;;4873095;28;93902;-66
2022/04/11 02:45:28;;;;;;;2.45;1.40;;;17.30;55.70;;;;;;4873916;28;93154;-66
2022/04/11 02:47:53;;;;;;;2.17;1.38;;;17.30;55.70;;;;;;4873333;28;92850;-65
2022/04/11 02:50:20;;;;;;;2.83;1.77;;;17.30;55.70;;;;;;4873559;28;93064;-66
2022/04/11 02:52:47;;;;;;;2.63;1.70;;;17.20;55.70;;;;;;4874296;28;94071;-67
2022/04/11 02:55:12;;;;;;;2.08;1.60;;;17.20;55.60;;;;;;4873264;28;92791;-66
2022/04/11 02:57:38;;;;;;;2.17;1.50;;;17.20;55.60;;;;;;4872686;28;93113;-67
2022/04/11 03:00:10;;;;;;;1.58;1.30;;;17.20;55.60;;;;;;4871191;28;96495;-67
2022/04/11 03:02:36;;;;;;;3.30;1.58;;;17.20;55.60;;;;;;4873550;28;97395;-67
2022/04/11 03:05:01;;;;;;;1.88;1.17;;;17.20;55.60;;;;;;4874239;28;92803;-66
2022/04/11 03:07:30;;;;;;;1.58;1.35;;;17.20;55.60;;;;;;4874082;28;92490;-66
2022/04/11 03:09:55;;;;;;;2.25;1.48;;;17.20;56.60;;;;;;4872885;28;92953;-66
2022/04/11 03:12:21;;;;;;;2.22;1.45;;;17.20;55.60;;;;;;4873364;28;93848;-66
2022/04/11 03:14:48;;;;;;;2.33;1.55;;;17.20;55.60;;;;;;4874022;28;92559;-66
2022/04/11 04:18:58;;;;;;;1.77;1.40;;;17.00;55.30;;;;;;4931769;23;101500;-70
2022/04/11 04:21:23;;;;;;;1.77;1.30;;;17.00;55.40;;;;;;4893350;28;93017;-68
2022/04/11 04:23:49;;;;;;;2.03;1.20;;;17.00;56.40;;;;;;4893112;28;94175;-68
2022/04/11 04:26:14;;;;;;;2.75;1.30;;;17.00;55.30;;;;;;4892232;28;93773;-68
2022/04/11 04:28:41;;;;;;;1.45;1.20;;;17.00;55.30;;;;;;4892676;28;92968;-69
2022/04/11 04:31:06;;;;;;;3.15;1.52;;;17.00;55.30;;;;;;4892158;28;93122;-70
2022/04/11 04:33:32;;;;;;;1.48;1.20;;;17.00;55.30;;;;;;4891999;28;95794;-68
2022/04/11 04:35:58;;;;;;;2.28;1.35;;;17.00;55.30;;;;;;4892100;28;93805;-67
2022/04/11 04:38:23;;;;;;;2.05;1.20;;;16.90;55.20;;;;;;4891395;28;103178;-68
2022/04/11 04:40:49;;;;;;;2.25;1.55;;;17.00;55.40;;;;;;4894148;28;92997;-67
2022/04/11 04:43:14;;;;;;;2.10;1.48;;;16.90;55.20;;;;;;4894500;28;95683;-68
2022/04/11 04:45:40;;;;;;;1.77;1.35;;;17.00;55.20;;;;;;4895790;28;96557;-68
2022/04/11 04:48:06;;;;;;;4.07;1.48;;;16.90;55.20;;;;;;4895902;28;92781;-68
2022/04/11 04:50:32;;;;;;;5.95;1.40;;;16.90;55.10;;;;;;4895907;28;92713;-67
2022/04/11 04:52:58;;;;;;;1.92;1.40;;;16.90;55.40;;;;;;4896198;28;94810;-69
2022/04/11 04:55:24;;;;;;;3.33;1.38;;;17.00;55.40;;;;;;4895504;28;94551;-67
2022/04/11 04:57:49;;;;;;;2.20;1.35;;;17.00;55.30;;;;;;4896671;28;92628;-67
2022/04/11 05:00:15;;;;;;;2.53;1.30;;;17.00;55.40;;;;;;4895955;28;91811;-69
2022/04/11 05:02:43;;;;;;;2.72;1.20;;;17.00;55.40;;;;;;4895144;28;95732;-68
2022/04/11 05:05:10;;;;;;;2.30;1.38;;;17.00;55.20;;;;;;4895075;28;93861;-68
2022/04/11 05:07:36;;;;;;;2.65;1.20;;;17.00;55.00;;;;;;4893680;28;94973;-68
2022/04/11 05:10:04;;;;;;;2.28;1.48;;;17.10;55.00;;;;;;4895187;28;92578;-67
2022/04/11 05:12:45;;;;;;;2.53;1.10;;;17.00;54.80;;;;;;4894509;28;93324;-69
2022/04/11 05:15:12;;;;;;;1.80;1.30;;;17.10;54.90;;;;;;4895147;28;94116;-68
2022/04/11 05:17:39;;;;;;;2.78;1.40;;;17.10;54.90;;;;;;4895480;28;92597;-68
2022/04/11 05:20:06;;;;;;;3.25;1.23;;;17.10;55.90;;;;;;4905476;28;92923;-68
2022/04/11 05:22:32;;;;;;;3.08;1.40;;;17.10;54.90;;;;;;4913726;28;94976;-67
2022/04/11 05:24:58;;;;;;;2.30;1.23;;;17.10;54.90;;;;;;4914809;28;94025;-69
2022/04/11 05:27:24;;;;;;;1.85;1.15;;;17.10;55.10;;;;;;4914274;28;92868;-67
2022/04/11 05:29:49;;;;;;;2.10;1.50;;;17.20;56.10;;;;;;4914648;28;92549;-67
2022/04/11 05:32:15;;;;;;;6.30;1.13;;;17.10;55.00;;;;;;4912989;28;94913;-69
2022/04/11 05:34:46;;;;;;;2.42;1.40;;;17.10;54.90;;;;;;4914775;28;95567;-67
2022/04/11 05:37:12;;;;;;;2.60;1.50;;;17.20;55.20;;;;;;4914050;28;92884;-68
2022/04/11 05:39:38;;;;;;;2.78;1.33;;;17.20;55.40;;;;;;4913831;28;92618;-68
2022/04/11 05:42:05;;;;;;;2.80;1.40;;;17.10;55.10;;;;;;4914234;28;94121;-67
2022/04/11 05:44:30;;;;;;;2.00;1.33;;;17.20;55.50;;;;;;4914565;28;93068;-68
2022/04/11 05:46:56;;;;;;;2.95;1.17;;;17.10;55.40;;;;;;4914640;28;97547;-68
2022/04/11 05:49:22;;;;;;;2.15;1.33;;;17.10;55.60;;;;;;4914968;28;92262;-68
2022/04/11 05:51:50;;;;;;;2.95;1.30;;;17.20;55.60;;;;;;4914192;28;94021;-68
2022/04/11 05:54:15;;;;;;;2.20;1.30;;;17.20;55.60;;;;;;4913571;28;93760;-68
2022/04/11 05:56:42;;;;;;;4.78;1.50;;;17.20;55.60;;;;;;4912322;28;95416;-67
2022/04/11 05:59:08;;;;;;;3.25;1.40;;;17.20;55.60;;;;;;4913781;28;93147;-67
2022/04/11 06:01:35;;;;;;;2.80;1.50;;;17.20;55.60;;;;;;4913068;28;94208;-68
2022/04/11 06:04:01;;;;;;;4.60;1.60;;;17.20;55.60;;;;;;4913418;28;93174;-68
2022/04/11 06:06:27;;;;;;;3.78;1.60;;;17.20;55.50;;;;;;4913922;28;92918;-67
2022/04/11 06:08:52;;;;;;;1.83;1.30;;;17.30;55.40;;;;;;4915571;28;92605;-68
2022/04/11 06:11:20;;;;;;;3.35;1.30;;;17.50;55.20;;;;;;4913761;28;94574;-70
2022/04/11 06:13:45;;;;;;;4.38;1.33;;;17.60;55.10;;;;;;4914642;28;91832;-69
2022/04/11 06:16:12;;;;;;;3.88;1.60;;;17.70;55.00;;;;;;4913811;28;92905;-68
2022/04/11 06:18:37;;;;;;;3.28;1.30;;;17.80;54.90;;;;;;4912396;28;93332;-68
2022/04/11 06:21:03;;;;;;;4.00;1.48;;;17.90;54.80;;;;;;4911829;28;96415;-68
2022/04/11 06:23:29;;;;;;;3.35;1.10;;;18.00;54.80;;;;;;4912838;28;94989;-68
2022/04/11 06:25:55;;;;;;;4.10;1.50;;;18.00;54.60;;;;;;4913349;28;92554;-67
2022/04/11 06:28:21;;;;;;;3.17;1.40;;;18.10;54.70;;;;;;4912980;28;93152;-68
2022/04/11 06:30:47;;;;;;;5.55;1.30;;;18.10;54.60;;;;;;4912299;28;102942;-66
2022/04/11 06:33:12;;;;;;;4.50;1.50;;;18.20;54.50;;;;;;4895199;28;93827;-70
2022/04/11 06:35:38;;;;;;;2.90;1.30;;;18.20;54.30;;;;;;4912357;28;92814;-68
2022/04/11 06:38:03;;;;;;;5.20;1.40;;;18.20;54.30;;;;;;4913147;28;92367;-67
2022/04/11 06:40:30;;;;;;;3.17;1.27;;;18.30;54.20;;;;;;4913394;28;94167;-67
2022/04/11 06:42:56;;;;;;;3.72;1.50;;;18.30;54.20;;;;;;4912195;28;93829;-68
2022/04/11 06:45:21;;;;;;;2.92;1.13;;;18.30;54.20;;;;;;4911803;28;96610;-67
2022/04/11 06:47:48;;;;;;;3.10;1.20;;;18.30;54.20;;;;;;4913636;28;92503;-65
2022/04/11 06:50:14;;;;;;;2.75;1.00;;;18.30;54.10;;;;;;4912936;28;94980;-67
2022/04/11 06:52:40;;;;;;;3.03;1.08;;;18.40;54.20;;;;;;4913707;28;94499;-67
2022/04/11 06:55:06;;;;;;;2.45;1.15;;;18.40;54.10;;;;;;4913448;28;92606;-66
2022/04/11 06:57:32;;;;;;;5.45;1.30;;;18.40;54.00;;;;;;4912281;28;92481;-67
2022/04/11 06:59:58;;;;;;;3.38;1.27;;;18.40;54.00;;;;;;4912471;28;93445;-67
2022/04/11 07:02:23;;;;;;;3.83;1.35;;;18.40;53.90;;;;;;4913157;28;93872;-67
2022/04/11 07:04:49;;;;;;;3.38;1.40;;;18.40;53.90;;;;;;4912760;28;93092;-67
2022/04/11 07:07:15;;;;;;;3.90;1.35;;;18.40;54.00;;;;;;4913097;28;92503;-68
2022/04/11 07:09:40;;;;;;;1.98;1.20;;;18.40;53.90;;;;;;4911103;28;96620;-67
2022/04/11 07:12:06;;;;;;;2.35;1.20;;;18.40;53.90;;;;;;4913172;28;97689;-67
2022/04/11 07:14:32;;;;;;;3.90;1.40;;;18.40;53.80;;;;;;4913234;28;92884;-67
2022/04/11 07:16:58;;;;;;;3.15;1.60;;;18.50;53.90;;;;;;4912214;28;96300;-68
2022/04/11 07:19:23;;;;;;;4.57;1.25;;;18.50;53.90;;;;;;4910958;28;101837;-67
2022/04/11 07:21:49;;;;;;;3.15;1.25;;;18.40;53.80;;;;;;4911776;28;93693;-67
2022/04/11 07:24:15;;;;;;;3.10;1.10;;;18.40;53.80;;;;;;4911583;28;93253;-68
2022/04/11 07:26:41;;;;;;;4.32;1.42;;;18.40;53.90;;;;;;4913059;28;92231;-68
2022/04/11 07:29:07;;;;;;;2.67;1.30;;;18.40;54.00;;;;;;4911953;28;93107;-67
2022/04/11 07:31:33;;;;;;;2.65;1.15;;;18.40;54.00;;;;;;4912642;28;92851;-68
2022/04/11 07:33:58;;;;;;;2.13;1.30;;;18.30;54.00;;;;;;4910172;28;95349;-67
2022/04/11 07:36:24;;;;;;;1.98;1.20;;;18.30;54.00;;;;;;4912431;28;92977;-68
2022/04/11 07:38:49;;;;;;;4.47;1.50;;;18.30;54.20;;;;;;4911785;28;93010;-67
2022/04/11 07:41:15;;;;;;;4.07;1.67;;;18.20;54.10;;;;;;4911356;28;94057;-67
2022/04/11 07:43:40;;;;;;;2.35;1.30;;;18.20;54.20;;;;;;4911741;28;94792;-68
2022/04/11 07:46:06;;;;;;;2.00;1.30;;;18.20;54.20;;;;;;4912376;28;92630;-67
2022/04/11 07:48:32;;;;;;;2.60;1.50;;;18.20;54.30;;;;;;4911916;28;94044;-67
2022/04/11 07:50:58;;;;;;;2.83;1.45;;;18.20;54.30;;;;;;4912476;28;94341;-67
2022/04/11 07:53:24;;;;;;;3.30;1.35;;;18.10;54.30;;;;;;4912348;28;92735;-68
2022/04/11 07:55:49;;;;;;;2.53;1.45;;;18.10;54.30;;;;;;4911855;28;92595;-67
2022/04/11 07:58:16;;;;;;;1.95;1.50;;;18.10;54.40;;;;;;4909509;28;96725;-67
2022/04/11 08:00:42;;;;;;;1.65;1.23;;;18.10;54.50;;;;;;4911226;28;97216;-67
2022/04/11 08:03:08;;;;;;;2.10;1.42;;;18.10;54.50;;;;;;4911437;28;92695;-68
2022/04/11 08:05:33;;;;;;;2.33;1.55;;;18.10;54.50;;;;;;4911473;28;92916;-68
2022/04/11 08:07:59;;;;;;;1.83;1.10;;;18.10;54.50;;;;;;4911668;28;93137;-68
2022/04/11 08:10:25;;;;;;;3.00;1.50;;;18.00;54.50;;;;;;4893421;28;95736;-67
2022/04/11 08:12:55;;;;;;;3.22;1.52;;;18.00;54.60;;;;;;4912563;28;93026;-67
2022/04/11 08:15:21;;;;;;;1.63;1.27;;;18.00;54.60;;;;;;4914541;28;92213;-67
2022/04/11 08:17:47;;;;;;;2.92;1.50;;;18.00;54.60;;;;;;4914834;28;94369;-69
2022/04/11 08:20:12;;;;;;;2.67;1.40;;;17.90;54.60;;;;;;4914570;28;94353;-67
2022/04/11 08:22:38;;;;;;;2.97;1.30;;;17.90;54.70;;;;;;4913078;28;95559;-67
2022/04/11 08:25:04;;;;;;;1.95;1.38;;;17.90;54.70;;;;;;4914755;28;94789;-67
2022/04/11 08:27:30;;;;;;;2.58;1.30;;;17.90;54.70;;;;;;4914369;28;93204;-67
2022/04/11 08:29:55;;;;;;;1.90;1.45;;;18.00;54.80;;;;;;4915256;28;92779;-68
2022/04/11 08:32:21;;;;;;;1.67;1.20;;;17.90;54.80;;;;;;4914660;28;92528;-68
2022/04/11 08:34:46;;;;;;;2.33;1.35;;;17.90;54.90;;;;;;4914925;28;92570;-68
2022/04/11 08:37:12;;;;;;;2.67;1.45;;;17.90;54.90;;;;;;4915065;28;94327;-67
2022/04/11 08:39:38;;;;;;;3.17;1.30;;;17.90;54.90;;;;;;4914679;28;92396;-68
2022/04/11 08:42:04;;;;;;;2.17;1.50;;;17.90;54.90;;;;;;4914662;28;92785;-67
2022/04/11 08:44:31;;;;;;;2.90;1.50;;;17.90;55.00;;;;;;4914967;28;93276;-67
2022/04/11 08:47:01;;;;;;;2.53;1.30;;;17.90;55.00;;;;;;4913280;28;94931;-67
2022/04/11 08:49:31;;;;;;;1.70;1.40;;;17.90;55.00;;;;;;4913198;28;96687;-67
2022/04/11 08:51:57;;;;;;;2.80;1.40;;;17.80;55.00;;;;;;4915156;28;93005;-68
2022/04/11 08:54:22;;;;;;;2.08;1.30;;;17.80;55.00;;;;;;4914674;28;92830;-67
2022/04/11 08:56:48;;;;;;;1.60;1.40;;;17.80;55.00;;;;;;4914555;28;93150;-70
2022/04/11 08:59:14;;;;;;;2.03;1.30;;;17.80;55.10;;;;;;4914766;28;92559;-67
2022/04/11 09:01:40;;;;;;;2.17;1.33;;;17.80;55.10;;;;;;4913320;28;92882;-68
2022/04/11 09:04:08;;;;;;;1.75;1.27;;;17.80;55.10;;;;;;4915632;28;92253;-67
2022/04/11 09:06:35;;;;;;;1.55;1.40;;;17.80;55.20;;;;;;4915273;28;93062;-67
2022/04/11 09:09:03;;;;;;;2.17;1.50;;;17.70;55.20;;;;;;4913398;28;94581;-67
2022/04/11 09:11:30;;;;;;;2.40;1.42;;;17.80;55.20;;;;;;4913022;28;95239;-68
2022/04/11 09:13:58;;;;;;;1.38;1.25;;;17.80;55.30;;;;;;4915255;28;92852;-67
2022/04/11 09:16:24;;;;;;;2.10;1.30;;;17.80;55.30;;;;;;4914370;28;93310;-67
2022/04/11 09:18:52;;;;;;;2.35;1.38;;;17.70;55.30;;;;;;4914404;28;92697;-67
2022/04/11 09:21:20;;;;;;;1.70;1.23;;;17.70;55.30;;;;;;4913968;28;94166;-73
2022/04/11 09:23:47;;;;;;;1.98;1.25;;;17.80;55.40;;;;;;4913832;28;93843;-68
2022/04/11 09:26:30;;;;;;;2.22;1.40;;;17.80;55.40;;;;;;4912483;28;94156;-67
2022/04/11 09:29:03;;;;;;;2.50;1.30;;;17.80;55.40;;;;;;4914070;28;93094;-67
2022/04/11 09:31:31;;;;;;;2.05;1.30;;;17.70;55.40;;;;;;4913942;28;93137;-67
2022/04/11 09:34:21;;;;;;;1.42;1.10;;;17.80;55.50;;;;;;4914926;28;92516;-67
2022/04/11 09:37:02;;;;;;;2.15;1.15;;;17.70;55.40;;;;;;4912874;28;96745;-68
2022/04/11 09:39:33;;;;;;;1.92;1.20;;;17.80;55.50;;;;;;4913531;28;96858;-67
2022/04/11 09:41:59;;;;;;;2.10;1.40;;;17.80;55.60;;;;;;4913350;28;92624;-67
2022/04/11 09:44:31;;;;;;;1.75;1.40;;;17.70;55.50;;;;;;4913869;28;92534;-67
2022/04/11 09:47:02;;;;;;;2.30;1.50;;;17.80;55.60;;;;;;4913177;28;93232;-68
2022/04/11 09:49:29;;;;;;;2.45;1.40;;;17.70;55.50;;;;;;4913168;28;94292;-67
2022/04/11 09:52:04;;;;;;;2.72;1.30;;;17.70;55.50;;;;;;4913265;28;92890;-67
2022/04/11 09:54:31;;;;;;;2.33;1.35;;;17.80;55.50;;;;;;4914486;28;91971;-67
2022/04/11 09:57:01;;;;;;;2.13;1.10;;;17.80;55.60;;;;;;4913869;28;94178;-69
2022/04/11 09:59:27;;;;;;;2.10;1.20;;;17.80;55.50;;;;;;4913218;28;93304;-67
2022/04/11 10:01:53;;;;;;;1.75;1.27;;;17.80;55.50;;;;;;4912750;28;94999;-67
2022/04/11 10:04:19;;;;;;;1.33;1.23;;;17.80;55.50;;;;;;4913122;28;92639;-67
2022/04/11 10:06:45;;;;;;;2.13;1.23;;;17.80;55.50;;;;;;4913494;28;93831;-69
2022/04/11 10:09:16;;;;;;;2.28;1.23;;;17.90;55.50;;;;;;4913905;28;93359;-67
2022/04/11 10:11:45;;;;;;;3.00;1.40;;;17.90;55.50;;;;;;4913005;28;92843;-68
2022/04/11 10:14:12;;;;;;;1.77;1.20;;;17.90;55.50;;;;;;4913276;28;92823;-67
2022/04/11 10:16:43;;;;;;;1.75;1.27;;;17.90;55.50;;;;;;4912881;28;92730;-70
2022/04/11 10:19:10;;;;;;;1.30;1.00;;;17.90;55.40;;;;;;4912803;28;91930;-68
2022/04/11 10:21:40;;;;;;;1.83;1.20;;;17.90;55.40;;;;;;4913460;28;92583;-68
2022/04/11 10:24:13;;;;;;;2.08;1.30;;;17.90;55.40;;;;;;4913309;28;93265;-72
2022/04/11 10:26:45;;;;;;;2.17;1.45;;;18.00;55.40;;;;;;4911373;28;96993;-68
2022/04/11 10:29:34;;;;;;;1.83;1.00;;;17.90;55.40;;;;;;4911986;28;95587;-68
2022/04/11 10:32:10;;;;;;;2.10;1.30;;;17.90;55.30;;;;;;4912792;28;93109;-68
2022/04/11 10:35:02;;;;;;;1.42;1.02;;;17.90;55.30;;;;;;4913622;28;92593;-67
2022/04/11 10:37:38;;;;;;;1.67;1.20;;;18.00;55.40;;;;;;4912149;28;94067;-67
2022/04/11 10:40:15;;;;;;;1.83;1.20;;;18.00;55.50;;;;;;4912748;28;93887;-67
2022/04/11 10:42:59;;;;;;;1.95;1.30;;;18.00;55.40;;;;;;4912628;28;93128;-67
2022/04/11 10:45:36;;;;;;;1.80;1.40;;;18.00;55.40;;;;;;4913600;28;92193;-67
2022/04/11 10:48:03;;;;;;;1.60;1.30;;;18.00;55.50;;;;;;4913431;28;92975;-68
2022/04/11 10:50:43;;;;;;;1.45;1.10;;;18.00;55.50;;;;;;4912011;28;94503;-68
2022/04/11 10:53:11;;;;;;;1.55;1.23;;;18.00;55.40;;;;;;4911781;28;95001;-68
2022/04/11 10:55:54;;;;;;;1.50;1.30;;;18.00;55.50;;;;;;4913470;28;92888;-68
2022/04/11 10:58:21;;;;;;;;;;;18.00;55.50;;;;;;4914171;28;93553;-68
2022/04/11 11:00:46;;;;;;;1.48;1.20;;;17.90;55.50;;;;;;4913476;28;94123;-68
2022/04/11 11:03:13;;;;;;;1.48;1.00;;;18.00;55.70;;;;;;4913370;28;92937;-68
2022/04/11 11:05:43;;;;;;;2.03;1.20;;;18.00;55.70;;;;;;4912603;28;92572;-67
2022/04/11 11:08:12;;;;;;;1.27;1.10;;;18.00;55.60;;;;;;4911945;28;94227;-68
2022/04/11 11:10:46;;;;;;;2.20;1.30;;;18.00;55.60;;;;;;4913069;28;93834;-68
2022/04/11 11:13:36;;;;;;;1.40;1.30;;;18.00;55.50;;;;;;4913074;28;92578;-68
2022/04/11 11:16:07;;;;;;;1.40;1.13;;;18.00;55.60;;;;;;4912738;28;92599;-67
2022/04/11 11:18:48;;;;;;;2.08;1.40;;;18.00;55.60;;;;;;4909986;28;96700;-68
2022/04/11 11:21:14;;;;;;;1.30;1.20;;;18.00;55.60;;;;;;4912325;28;95080;-67
2022/04/11 11:23:40;;;;;;;2.58;1.20;;;18.00;55.60;;;;;;4913402;28;92734;-68
2022/04/11 11:26:09;;;;;;;2.08;1.17;;;18.00;55.60;;;;;;4912968;28;93032;-67
2022/04/11 11:28:35;;;;;;;1.77;1.20;;;18.00;55.60;;;;;;4912560;28;93213;-68
2022/04/11 11:31:01;;;;;;;1.77;1.20;;;18.10;55.60;;;;;;4912001;28;94071;-68
2022/04/11 11:33:27;;;;;;;1.40;1.13;;;18.00;55.60;;;;;;4912794;28;92489;-68
2022/04/11 11:35:54;;;;;;;1.88;1.35;;;18.00;55.50;;;;;;4912128;28;92205;-67
2022/04/11 11:38:25;;;;;;;1.20;1.10;;;18.10;55.60;;;;;;4912373;28;93129;-67
2022/04/11 11:40:56;;;;;;;2.25;1.33;;;18.10;55.50;;;;;;4912658;28;94602;-68
2022/04/11 11:43:23;;;;;;;2.30;1.30;;;18.10;55.60;;;;;;4911405;28;95170;-68
2022/04/11 11:45:50;;;;;;;1.38;1.13;;;18.10;55.60;;;;;;4912133;28;93166;-68
2022/04/11 11:48:27;;;;;;;1.40;1.15;;;18.10;55.60;;;;;;4912264;28;93689;-67
2022/04/11 11:50:57;;;;;;;1.67;1.27;;;18.10;56.60;;;;;;4914203;28;93803;-68
2022/04/11 11:53:24;;;;;;;1.65;1.30;;;18.00;55.60;;;;;;4914166;28;92783;-68
2022/04/11 11:55:59;;;;;;;1.75;1.20;;;18.10;55.70;;;;;;4916305;28;92457;-68
2022/04/11 11:58:38;;;;;;;1.20;1.10;;;18.10;55.60;;;;;;4913676;28;94362;-67
2022/04/11 12:01:06;;;;;;;2.58;1.48;;;18.10;55.70;;;;;;4914601;28;92834;-68
2022/04/11 12:06:27;;;;;;;1.38;1.25;;;18.10;55.70;;;;;;4915251;28;93003;-68
2022/04/11 12:09:03;;;;;;;1.40;1.20;;;18.10;55.70;;;;;;4912614;28;96467;-68
2022/04/11 12:11:30;;;;;;;1.30;1.05;;;18.10;55.70;;;;;;4913052;28;96114;-67
2022/04/11 12:14:06;;;;;;;2.20;1.45;;;18.10;55.80;;;;;;4914835;28;92572;-67
2022/04/11 12:16:34;;;;;;;1.30;1.17;;;18.10;55.70;;;;;;4914157;28;92610;-68
2022/04/11 12:19:01;;;;;;;1.35;1.10;;;18.10;55.70;;;;;;4913419;28;93382;-67
2022/04/11 12:21:44;;;;;;;1.20;1.10;;;18.10;55.70;;;;;;4914631;28;93418;-67
2022/04/11 12:24:10;;;;;;;1.42;1.10;;;18.10;55.80;;;;;;4914740;28;93045;-68
2022/04/11 12:26:45;;;;;;;1.40;1.13;;;18.10;55.80;;;;;;4915120;28;92353;-68
2022/04/11 12:29:15;;;;;;;1.35;1.13;;;18.10;55.80;;;;;;4915236;28;94124;-67
2022/04/11 12:32:14;;;;;;;1.33;1.10;;;18.10;55.80;;;;;;4914575;28;92852;-68
2022/04/11 12:34:45;;;;;;;2.00;1.30;;;18.10;55.70;;;;;;4860591;28;95504;-68
2022/04/11 12:37:13;;;;;;;1.20;1.08;;;18.10;55.80;;;;;;4914625;28;92960;-68
2022/04/11 12:39:53;;;;;;;1.05;0.95;;;18.10;55.80;;;;;;4915376;28;94148;-68
2022/04/11 12:42:25;;;;;;;1.38;1.13;;;18.10;55.70;;;;;;4912428;28;93327;-67
2022/04/11 12:45:05;;;;;;;1.45;1.05;;;18.10;55.80;;;;;;4913525;28;92680;-68
2022/04/11 12:47:32;;;;;;;1.40;1.10;;;18.20;55.80;;;;;;4896380;28;92622;-67
2022/04/11 12:49:58;;;;;;;1.20;1.10;;;18.10;56.80;;;;;;4913666;28;94912;-68
2022/04/11 12:52:25;;;;;;;1.48;1.15;;;18.20;55.80;;;;;;4913815;28;92840;-67
2022/04/11 12:55:03;;;;;;;1.77;1.10;;;18.20;55.70;;;;;;4913413;28;94293;-69
2022/04/11 12:57:31;;;;;;;1.10;0.85;;;18.20;55.70;;;;;;4913096;28;92938;-67
2022/04/11 13:00:18;;;;;;;1.17;1.08;;;18.20;55.70;;;;;;4912522;28;96578;-68
2022/04/11 13:02:44;;;;;;;1.52;1.17;;;18.20;55.70;;;;;;4913963;28;96301;-66
2022/04/11 13:05:13;;;;;;;1.20;1.10;;;18.20;55.70;;;;;;4914163;28;93028;-67
2022/04/11 13:07:40;;;;;;;1.15;1.00;;;18.20;56.60;;;;;;4914320;28;92631;-68
2022/04/11 13:10:07;;;;;;;1.20;1.10;;;18.20;55.70;;;;;;4913733;28;94613;-66
2022/04/11 13:12:33;;;;;;;1.58;1.10;;;18.20;55.60;;;;;;4913499;28;95517;-67
2022/04/11 13:14:59;;;;;;;0.85;0.82;;;18.20;55.60;;;;;;4913589;28;92493;-67
2022/04/11 13:20:10;;;;;;;1.20;1.10;;;18.30;55.60;;;;;;4913604;28;93354;-70
2022/04/11 13:22:35;;;;;;;1.13;0.90;;;18.30;55.60;;;;;;4913786;28;93308;-67
2022/04/11 13:25:03;;;;;;;1.45;1.10;;;18.30;55.60;;;;;;4912606;28;95148;-68
2022/04/11 13:27:28;;;;;;;1.23;1.10;;;18.30;55.50;;;;;;4913740;28;92472;-68
2022/04/11 13:29:54;;;;;;;1.10;1.00;;;18.30;55.60;;;;;;4913736;28;96397;-68
2022/04/11 13:32:22;;;;;;;1.13;1.00;;;18.30;55.50;;;;;;4912909;28;94166;-67
2022/04/11 13:34:48;;;;;;;1.08;0.85;;;18.30;55.60;;;;;;4913579;28;92549;-67
2022/04/11 13:37:15;;;;;;;1.42;1.02;;;18.30;55.60;;;;;;4913396;28;92761;-67
2022/04/11 13:39:41;;;;;;;1.20;0.93;;;18.30;55.50;;;;;;4913975;28;93637;-67
2022/04/11 13:42:07;;;;;;;1.50;1.10;;;18.30;55.60;;;;;;4913747;28;93016;-67
2022/04/11 13:44:33;;;;;;;1.33;1.10;;;18.30;55.60;;;;;;4913567;28;92590;-68
2022/04/11 13:46:59;;;;;;;1.48;1.00;;;18.30;55.60;;;;;;4912947;28;92941;-68
2022/04/11 13:49:24;;;;;;;1.67;1.17;;;18.30;55.60;;;;;;4911985;28;97780;-67
2022/04/11 13:51:50;;;;;;;1.55;1.20;;;18.30;55.60;;;;;;4912502;28;96614;-67
2022/04/11 13:54:16;;;;;;;1.30;1.00;;;18.30;55.60;;;;;;4913316;28;93544;-67
2022/04/11 13:56:42;;;;;;;1.38;1.27;;;18.30;55.60;;;;;;4912764;28;92610;-68
2022/04/11 13:59:09;;;;;;;1.15;1.00;;;18.40;55.70;;;;;;4913776;28;94330;-67